createdAt,value
2023-06-17T00:00:44.144Z,65.20
2023-06-17T00:04:07.989Z,65.70
2023-06-17T00:07:31.963Z,65.80
2023-06-17T00:10:55.698Z,66.10
2023-06-17T00:14:21.732Z,66.80
2023-06-17T00:17:47.434Z,67.50
2023-06-17T00:21:11.342Z,67.90
2023-06-17T00:24:35.140Z,68.60
2023-06-17T00:27:58.849Z,68.70
2023-06-17T00:31:22.505Z,69.30
2023-06-17T00:34:47.714Z,69.90
2023-06-17T00:38:11.289Z,70.40
2023-06-17T00:41:35.009Z,70.90
2023-06-17T00:44:58.548Z,71.30
2023-06-17T00:48:22.599Z,72.30
2023-06-17T00:52:00.118Z,72.10
2023-06-17T00:55:33.467Z,72.80
2023-06-17T00:58:58.387Z,73.60
2023-06-17T01:02:26.612Z,73.30
2023-06-17T01:05:52.584Z,73.40
2023-06-17T01:09:22.183Z,73.50
2023-06-17T01:12:50.080Z,73.70
2023-06-17T01:16:13.882Z,74.10
2023-06-17T01:19:37.607Z,74.00
2023-06-17T01:23:02.821Z,74.50
2023-06-17T01:26:29.398Z,75.50
2023-06-17T01:29:53.516Z,75.10
2023-06-17T01:33:17.711Z,75.40
2023-06-17T01:36:42.077Z,75.60
2023-06-17T01:40:09.870Z,76.30
2023-06-17T01:43:37.311Z,76.60
2023-06-17T01:47:01.362Z,77.10
2023-06-17T01:50:25.131Z,77.40
2023-06-17T01:53:48.882Z,77.50
2023-06-17T01:57:12.786Z,77.50
2023-06-17T02:00:37.804Z,77.90
2023-06-17T02:04:01.487Z,78.10
2023-06-17T02:07:27.310Z,78.20
2023-06-17T02:10:51.167Z,78.50
2023-06-17T02:14:14.937Z,78.80
2023-06-17T02:17:39.917Z,79.10
2023-06-17T02:21:04.662Z,79.50
2023-06-17T02:24:28.772Z,79.80
2023-06-17T02:27:52.617Z,80.00
2023-06-17T02:31:19.221Z,80.40
2023-06-17T02:34:44.882Z,80.70
2023-06-17T02:38:08.625Z,81.30
2023-06-17T02:41:32.706Z,81.80
2023-06-17T02:44:56.392Z,82.30
2023-06-17T02:48:20.028Z,82.50
2023-06-17T02:51:45.168Z,82.30
2023-06-17T02:55:09.441Z,82.70
2023-06-17T02:58:33.374Z,82.80
2023-06-17T03:01:57.274Z,83.20
2023-06-17T03:05:20.964Z,84.00
2023-06-17T03:08:46.020Z,84.30
2023-06-17T03:12:10.653Z,84.60
2023-06-17T03:15:34.982Z,85.00
2023-06-17T03:19:00.078Z,85.50
2023-06-17T03:22:24.818Z,85.90
2023-06-17T03:25:50.939Z,86.30
2023-06-17T03:29:14.718Z,86.30
2023-06-17T03:32:38.526Z,86.20
2023-06-17T03:36:02.177Z,86.30
2023-06-17T03:39:25.998Z,86.70
2023-06-17T03:42:52.906Z,86.90
2023-06-17T03:46:16.548Z,87.00
2023-06-17T03:49:40.771Z,87.40
2023-06-17T03:53:06.151Z,87.50
2023-06-17T03:56:29.742Z,87.70
2023-06-17T03:59:55.655Z,87.70
2023-06-17T04:03:20.722Z,87.70
2023-06-17T04:06:44.585Z,88.00
2023-06-17T04:10:10.030Z,88.20
2023-06-17T04:13:33.671Z,88.70
2023-06-17T04:17:00.242Z,88.80
2023-06-17T04:20:27.018Z,88.80
2023-06-17T04:23:51.224Z,88.80
2023-06-17T04:27:15.447Z,88.60
2023-06-17T04:30:40.839Z,88.60
2023-06-17T04:34:06.414Z,88.50
2023-06-17T04:37:30.105Z,89.00
2023-06-17T04:40:54.174Z,88.00
2023-06-17T04:44:19.518Z,88.10
2023-06-17T04:47:43.268Z,88.30
2023-06-17T04:51:08.353Z,88.70
2023-06-17T04:54:32.136Z,88.40
2023-06-17T04:57:55.964Z,88.60
2023-06-17T05:01:31.671Z,88.50
2023-06-17T05:04:56.224Z,88.10
2023-06-17T05:08:21.462Z,87.50
2023-06-17T05:11:46.117Z,86.20
2023-06-17T05:15:11.073Z,83.10
2023-06-17T05:18:34.830Z,80.10
2023-06-17T05:21:59.784Z,77.10
2023-06-17T05:25:25.826Z,75.30
2023-06-17T05:28:49.433Z,73.30
2023-06-17T05:32:13.712Z,71.10
2023-06-17T05:35:37.481Z,69.50
2023-06-17T05:39:01.741Z,66.40
2023-06-17T05:42:26.804Z,64.60
2023-06-17T05:45:50.889Z,64.50
2023-06-17T05:49:15.783Z,63.90
2023-06-17T05:52:40.046Z,62.60
2023-06-17T05:56:03.612Z,61.60
2023-06-17T05:59:30.907Z,60.40
2023-06-17T06:02:55.365Z,58.60
2023-06-17T06:06:19.922Z,58.30
2023-06-17T06:09:43.516Z,57.50
2023-06-17T06:13:07.234Z,56.30
2023-06-17T06:16:32.492Z,55.70
2023-06-17T06:19:56.230Z,55.60
2023-06-17T06:23:19.924Z,54.40
2023-06-17T06:26:43.830Z,55.00
2023-06-17T06:30:11.295Z,54.50
2023-06-17T06:33:40.737Z,54.30
2023-06-17T06:37:05.681Z,52.90
2023-06-17T06:40:29.443Z,52.80
2023-06-17T06:43:53.112Z,52.90
2023-06-17T06:47:16.881Z,52.90
2023-06-17T06:50:41.812Z,51.70
2023-06-17T06:54:06.981Z,51.50
2023-06-17T06:57:31.364Z,51.80
2023-06-17T07:00:55.100Z,51.50
2023-06-17T07:04:21.536Z,50.80
2023-06-17T07:07:50.486Z,50.40
2023-06-17T07:11:14.481Z,50.20
2023-06-17T07:14:38.239Z,50.50
2023-06-17T07:18:03.143Z,51.00
2023-06-17T07:21:26.845Z,51.20
2023-06-17T07:24:51.920Z,50.60
2023-06-17T07:28:15.855Z,49.80
2023-06-17T07:31:39.944Z,50.30
2023-06-17T07:35:04.066Z,49.60
2023-06-17T07:38:28.019Z,49.40
2023-06-17T07:41:53.202Z,48.80
2023-06-17T07:45:16.982Z,48.60
2023-06-17T07:48:40.617Z,48.90
2023-06-17T07:52:04.678Z,47.80
2023-06-17T07:55:30.139Z,47.60
2023-06-17T07:58:55.451Z,47.20
2023-06-17T08:02:19.854Z,47.40
2023-06-17T08:05:44.345Z,46.80
2023-06-17T08:09:09.966Z,46.10
2023-06-17T08:12:34.696Z,46.20
2023-06-17T08:15:59.902Z,45.40
2023-06-17T08:19:24.616Z,45.50
2023-06-17T08:22:48.494Z,45.00
2023-06-17T08:26:15.519Z,44.40
2023-06-17T08:29:39.506Z,45.00
2023-06-17T08:33:05.056Z,44.30
2023-06-17T08:36:30.608Z,43.90
2023-06-17T08:39:54.498Z,43.20
2023-06-17T08:43:19.783Z,43.20
2023-06-17T08:46:45.878Z,44.10
2023-06-17T08:50:23.731Z,43.60
2023-06-17T08:53:50.153Z,43.10
2023-06-17T08:57:15.527Z,42.30
2023-06-17T09:00:39.629Z,42.80
2023-06-17T09:04:04.074Z,42.10
2023-06-17T09:07:30.084Z,42.30
2023-06-17T09:10:54.581Z,41.20
2023-06-17T09:14:19.435Z,42.40
2023-06-17T09:17:46.000Z,42.80
2023-06-17T09:21:10.711Z,41.80
2023-06-17T09:24:37.433Z,40.90
2023-06-17T09:31:30.132Z,40.60
2023-06-17T09:34:54.617Z,40.30
2023-06-17T09:38:19.449Z,40.60
2023-06-17T09:41:46.610Z,39.60
2023-06-17T09:45:12.505Z,39.90
2023-06-17T09:48:39.917Z,40.10
2023-06-17T09:52:06.418Z,40.90
2023-06-17T09:55:31.444Z,39.90
2023-06-17T09:58:57.843Z,39.10
2023-06-17T10:02:21.994Z,38.40
2023-06-17T10:05:47.052Z,37.40
2023-06-17T10:09:11.904Z,37.50
2023-06-17T10:12:37.294Z,36.70
2023-06-17T10:16:05.494Z,38.20
2023-06-17T10:19:33.887Z,38.20
2023-06-17T10:23:00.424Z,36.60
2023-06-17T10:26:24.968Z,36.70
2023-06-17T10:29:50.902Z,35.70
2023-06-17T10:33:16.133Z,35.80
2023-06-17T10:36:40.762Z,38.10
2023-06-17T10:40:26.992Z,39.20
2023-06-17T10:43:51.736Z,38.50
2023-06-17T10:47:22.839Z,38.70
2023-06-17T10:50:53.514Z,38.40
2023-06-17T10:54:27.445Z,38.40
2023-06-17T10:57:52.510Z,38.90
2023-06-17T11:01:17.104Z,39.70
2023-06-17T11:04:42.398Z,40.40
2023-06-17T11:08:08.220Z,42.10
2023-06-17T11:11:34.296Z,42.70
2023-06-17T11:15:01.337Z,43.60
2023-06-17T11:18:26.225Z,44.80
2023-06-17T11:21:52.320Z,45.30
2023-06-17T11:25:20.949Z,46.20
2023-06-17T11:28:52.701Z,46.60
2023-06-17T11:32:16.851Z,46.80
2023-06-17T11:35:40.923Z,47.70
2023-06-17T11:39:05.577Z,47.40
2023-06-17T11:42:31.559Z,49.30
2023-06-17T11:45:59.371Z,49.60
2023-06-17T11:49:26.444Z,49.20
2023-06-17T11:52:58.008Z,49.30
2023-06-17T11:56:23.017Z,49.30
2023-06-17T11:59:48.287Z,49.50
2023-06-17T12:06:37.322Z,50.90
2023-06-17T12:10:01.935Z,51.30
2023-06-17T12:13:25.878Z,52.20
2023-06-17T12:16:53.901Z,52.30
2023-06-17T12:20:18.979Z,52.10
2023-06-17T12:23:43.986Z,52.60
2023-06-17T12:27:10.564Z,52.50
2023-06-17T12:30:35.682Z,51.80
2023-06-17T12:34:01.181Z,52.40
2023-06-17T12:37:28.564Z,52.40
2023-06-17T12:40:52.866Z,51.60
2023-06-17T12:44:18.684Z,51.60
2023-06-17T12:47:43.091Z,51.10
2023-06-17T12:51:08.241Z,50.00
2023-06-17T12:54:31.860Z,50.40
2023-06-17T12:57:55.941Z,49.80
2023-06-17T13:01:19.933Z,50.20
2023-06-17T13:04:43.907Z,49.50
2023-06-17T13:08:09.253Z,49.40
2023-06-17T13:11:35.310Z,47.50
2023-06-17T13:14:58.917Z,48.00
2023-06-17T13:18:22.992Z,48.40
2023-06-17T13:21:47.446Z,48.50
2023-06-17T13:25:13.443Z,47.40
2023-06-17T13:28:39.579Z,47.50
2023-06-17T13:32:04.313Z,47.20
2023-06-17T13:35:27.894Z,46.80
2023-06-17T13:38:51.958Z,47.50
2023-06-17T13:42:19.734Z,47.60
2023-06-17T13:45:44.128Z,47.50
2023-06-17T13:49:07.974Z,47.90
2023-06-17T13:52:34.112Z,48.10
2023-06-17T13:56:00.542Z,48.80
2023-06-17T13:59:31.648Z,49.30
2023-06-17T14:02:57.947Z,49.40
2023-06-17T14:06:22.639Z,48.50
2023-06-17T14:09:49.209Z,47.70
2023-06-17T14:13:16.335Z,48.40
2023-06-17T14:16:43.791Z,48.20
2023-06-17T14:20:08.898Z,48.20
2023-06-17T14:23:35.979Z,46.60
2023-06-17T14:27:24.738Z,46.50
2023-06-17T14:30:49.942Z,47.60
2023-06-17T14:34:22.676Z,48.00
2023-06-17T14:37:49.141Z,47.70
2023-06-17T14:41:14.388Z,47.80
2023-06-17T14:44:40.587Z,47.60
2023-06-17T14:48:08.349Z,46.50
2023-06-17T14:51:41.893Z,46.50
2023-06-17T14:55:08.111Z,47.50
2023-06-17T14:58:34.111Z,46.90
2023-06-17T15:02:00.060Z,47.10
2023-06-17T15:05:24.822Z,46.40
2023-06-17T15:09:28.713Z,46.30
2023-06-17T15:12:56.525Z,46.60
2023-06-17T15:16:26.049Z,46.60
2023-06-17T15:19:59.006Z,46.90
2023-06-17T15:23:25.499Z,47.50
2023-06-17T15:26:58.463Z,47.50
2023-06-17T15:30:25.645Z,47.70
2023-06-17T15:33:53.247Z,47.50
2023-06-17T15:37:18.114Z,46.30
2023-06-17T15:40:42.391Z,46.20
2023-06-17T15:44:07.661Z,46.00
2023-06-17T15:47:32.370Z,46.10
2023-06-17T15:50:56.169Z,46.70
2023-06-17T15:54:26.880Z,46.70
2023-06-17T15:57:51.615Z,46.60
2023-06-17T16:01:20.475Z,46.20
2023-06-17T16:04:47.098Z,46.10
2023-06-17T16:08:13.559Z,46.00
2023-06-17T16:11:37.811Z,45.70
2023-06-17T16:15:03.874Z,45.40
2023-06-17T16:18:31.355Z,45.60
2023-06-17T16:22:00.055Z,45.90
2023-06-17T16:25:29.675Z,46.00
2023-06-17T16:28:59.361Z,46.00
2023-06-17T16:32:23.282Z,45.90
2023-06-17T16:35:53.268Z,46.10
2023-06-17T16:39:18.721Z,46.20
2023-06-17T16:42:43.189Z,46.50
2023-06-17T16:46:11.913Z,46.60
2023-06-17T16:49:38.998Z,45.90
2023-06-17T16:53:09.307Z,46.10
2023-06-17T16:56:35.435Z,46.00
2023-06-17T17:00:04.200Z,46.20
2023-06-17T17:03:30.399Z,45.90
2023-06-17T17:06:54.173Z,46.40
2023-06-17T17:10:27.008Z,47.10
2023-06-17T17:13:52.656Z,47.40
2023-06-17T17:17:17.393Z,49.40
2023-06-17T17:20:42.731Z,49.60
2023-06-17T17:24:09.985Z,49.50
2023-06-17T17:27:38.075Z,49.70
2023-06-17T17:31:01.720Z,49.80
2023-06-17T17:34:26.370Z,50.10
2023-06-17T17:37:52.924Z,49.70
2023-06-17T17:41:20.104Z,50.50
2023-06-17T17:44:45.690Z,49.40
2023-06-17T17:48:09.294Z,48.70
2023-06-17T17:51:40.812Z,49.10
2023-06-17T17:55:08.042Z,49.00
2023-06-17T17:58:37.445Z,49.30
2023-06-17T18:02:05.934Z,49.30
2023-06-17T18:05:34.123Z,49.40
2023-06-17T18:08:58.527Z,49.60
2023-06-17T18:12:23.389Z,49.90
2023-06-17T18:15:48.351Z,50.10
2023-06-17T18:19:19.430Z,50.30
2023-06-17T18:22:43.457Z,50.60
2023-06-17T18:26:09.804Z,50.80
2023-06-17T18:29:35.617Z,51.00
2023-06-17T18:33:03.023Z,51.70
2023-06-17T18:36:28.692Z,51.00
2023-06-17T18:39:54.851Z,51.20
2023-06-17T18:43:21.541Z,51.20
2023-06-17T18:46:45.686Z,51.40
2023-06-17T18:50:10.934Z,51.60
2023-06-17T18:53:39.209Z,51.90
2023-06-17T18:57:05.008Z,51.90
2023-06-17T19:00:31.962Z,52.40
2023-06-17T19:03:56.124Z,52.80
2023-06-17T19:07:20.516Z,53.10
2023-06-17T19:10:45.840Z,53.30
2023-06-17T19:14:12.024Z,53.70
2023-06-17T19:17:38.882Z,53.70
2023-06-17T19:21:02.599Z,53.90
2023-06-17T19:24:28.679Z,54.10
2023-06-17T19:27:56.218Z,54.30
2023-06-17T19:31:22.059Z,54.40
2023-06-17T19:34:48.320Z,54.90
2023-06-17T19:38:12.158Z,55.10
2023-06-17T19:41:36.100Z,55.50
2023-06-17T19:45:08.849Z,55.60
2023-06-17T19:48:38.606Z,55.90
2023-06-17T19:52:02.707Z,56.20
2023-06-17T19:55:26.457Z,56.60
2023-06-17T19:58:52.712Z,56.60
2023-06-17T20:02:29.793Z,56.80
2023-06-17T20:06:02.952Z,56.80
2023-06-17T20:09:31.870Z,57.20
2023-06-17T20:13:01.382Z,57.30
2023-06-17T20:16:34.441Z,57.40
2023-06-17T20:20:02.117Z,58.50
2023-06-17T20:23:28.330Z,59.10
2023-06-17T20:26:53.504Z,59.30
2023-06-17T20:30:17.627Z,59.50
2023-06-17T20:33:47.510Z,59.40
2023-06-17T20:37:15.115Z,60.30
2023-06-17T20:40:41.945Z,61.00
2023-06-17T20:44:06.939Z,61.40
2023-06-17T20:47:30.810Z,62.10
2023-06-17T20:50:56.798Z,62.40
2023-06-17T20:54:24.639Z,62.70
2023-06-17T20:57:52.913Z,63.70
2023-06-17T21:01:20.844Z,64.10
2023-06-17T21:04:44.917Z,64.90
2023-06-17T21:08:09.792Z,65.90
2023-06-17T21:11:39.694Z,66.30
2023-06-17T21:15:03.369Z,66.60
2023-06-17T21:18:30.135Z,67.50
2023-06-17T21:21:54.853Z,68.20
2023-06-17T21:25:20.837Z,69.20
2023-06-17T21:28:59.693Z,71.20
2023-06-17T21:32:23.659Z,72.60
2023-06-17T21:35:47.717Z,72.70
2023-06-17T21:39:18.978Z,72.90
2023-06-17T21:42:42.529Z,74.20
2023-06-17T21:46:08.088Z,75.60
2023-06-17T21:49:35.321Z,76.30
2023-06-17T21:53:00.001Z,77.00
2023-06-17T21:56:24.209Z,77.30
2023-06-17T21:59:50.250Z,78.20
2023-06-17T22:03:16.389Z,78.60
2023-06-17T22:06:43.218Z,78.90
2023-06-17T22:10:07.725Z,79.70
2023-06-17T22:13:39.095Z,79.90
2023-06-17T22:17:05.100Z,81.00
2023-06-17T22:20:35.984Z,81.00
2023-06-17T22:24:03.677Z,81.80
2023-06-17T22:27:29.878Z,82.30
2023-06-17T22:30:53.698Z,82.90
2023-06-17T22:34:20.043Z,83.60
2023-06-17T22:37:45.097Z,84.00
2023-06-17T22:41:11.038Z,84.30
2023-06-17T22:44:34.948Z,86.80
2023-06-17T22:48:01.124Z,87.60
2023-06-17T22:51:25.211Z,88.10
2023-06-17T22:54:54.706Z,88.70
2023-06-17T22:58:18.820Z,88.50
2023-06-17T23:01:42.743Z,88.70
2023-06-17T23:05:07.169Z,89.40
2023-06-17T23:08:31.988Z,89.30
2023-06-17T23:11:59.508Z,89.90
2023-06-17T23:15:23.074Z,89.80
2023-06-17T23:18:46.748Z,90.30
2023-06-17T23:22:11.448Z,90.40
2023-06-17T23:25:35.780Z,90.70
2023-06-17T23:29:01.174Z,91.20
2023-06-17T23:32:26.108Z,91.60
2023-06-17T23:35:58.129Z,91.80
2023-06-17T23:39:21.896Z,91.90
2023-06-17T23:42:45.796Z,92.00
2023-06-17T23:46:15.340Z,92.00
2023-06-17T23:49:42.284Z,92.20
2023-06-17T23:53:06.061Z,92.70
2023-06-17T23:56:30.715Z,92.80
2023-06-17T23:59:58.046Z,92.90
